Time;durP1;ratioP1;P1;durP2;ratioP2;P2;SDS_P1;SDS_P2;PMS_P1;PMS_P2;Temp;Humidity;BMP_temperature;BMP_pressure;BME280_temperature;BME280_humidity;BME280_pressure;Samples;Min_cycle;Max_cycle;Signal;HPM_P1;HPM_P2
2022/12/31 00:01:09;;;;;;;19.33;11.93;;;;;;;0.50;86.91;97469.38;5051631;28;20045;-60
2022/12/31 00:03:39;;;;;;;17.35;10.30;;;;;;;0.49;86.79;97469.34;5051704;28;20056;-61
2022/12/31 00:06:14;;;;;;;13.68;9.63;;;;;;;0.43;86.40;97475.28;5051680;28;20476;-63
2022/12/31 00:08:42;;;;;;;13.15;9.00;;;;;;;0.35;85.94;97474.25;5051542;28;20087;-64
2022/12/31 00:11:09;;;;;;;15.35;8.70;;;;;;;0.23;85.81;97480.06;5051501;28;20052;-66
2022/12/31 00:13:37;;;;;;;15.02;9.65;;;;;;;0.23;86.43;97480.06;5051437;28;20055;-64
2022/12/31 00:16:09;;;;;;;13.63;9.63;;;;;;;0.24;86.41;97485.22;5051342;28;20053;-63
2022/12/31 00:18:38;;;;;;;16.65;9.73;;;;;;;0.21;87.08;97484.31;5051346;28;20494;-66
2022/12/31 00:21:07;;;;;;;21.50;10.68;;;;;;;0.24;87.59;97487.81;5051366;28;20402;-62
2022/12/31 00:23:35;;;;;;;18.77;9.55;;;;;;;0.23;88.08;97483.50;5051347;28;20105;-64
2022/12/31 00:26:06;;;;;;;16.10;10.85;;;;;;;0.25;88.28;97483.53;5051232;28;20052;-64
2022/12/31 00:28:34;;;;;;;14.55;9.20;;;;;;;0.31;88.90;97483.66;5051204;28;20417;-61
2022/12/31 00:31:07;;;;;;;17.05;11.68;;;;;;;0.33;88.15;97488.84;5051190;28;20112;-64
2022/12/31 00:33:34;;;;;;;17.63;11.25;;;;;;;0.32;89.24;97494.78;5051302;28;20097;-62
2022/12/31 00:36:08;;;;;;;15.82;10.75;;;;;;;0.32;90.08;97494.78;5051203;28;20132;-64
2022/12/31 00:38:35;;;;;;;20.13;11.88;;;;;;;0.36;90.16;97500.03;5051282;28;20049;-64
2022/12/31 00:41:03;;;;;;;24.50;10.27;;;;;;;0.34;89.75;97501.72;5050908;28;20128;-61
2022/12/31 00:43:31;;;;;;;15.88;9.57;;;;;;;0.42;88.81;97503.56;5050902;28;20110;-60
2022/12/31 00:45:58;;;;;;;16.85;9.95;;;;;;;0.38;88.60;97502.63;5050935;28;20456;-62
2022/12/31 00:48:26;;;;;;;21.13;10.65;;;;;;;0.42;87.92;97512.16;5050898;28;20057;-62
2022/12/31 00:50:54;;;;;;;17.75;10.90;;;;;;;0.50;88.30;97504.56;5050891;28;20474;-63
2022/12/31 00:53:24;;;;;;;17.52;11.20;;;;;;;0.50;87.87;97507.13;5050861;28;20045;-61
2022/12/31 00:55:52;;;;;;;20.50;12.32;;;;;;;0.43;87.76;97510.44;5050955;28;20041;-62
2022/12/31 00:58:19;;;;;;;23.38;13.20;;;;;;;0.43;89.08;97506.19;5050899;28;20088;-62
2022/12/31 01:00:47;;;;;;;21.98;12.93;;;;;;;0.55;89.35;97502.06;5050821;28;20049;-64
2022/12/31 01:03:18;;;;;;;23.65;14.27;;;;;;;0.62;89.13;97503.91;5050697;28;20084;-64
2022/12/31 01:05:45;;;;;;;17.85;10.55;;;;;;;0.68;89.38;97510.88;5050751;28;20053;-61
2022/12/31 01:08:12;;;;;;;23.10;12.85;;;;;;;0.73;89.06;97502.38;5050650;28;20060;-64
2022/12/31 01:13:25;;;;;;;20.48;13.35;;;;;;;0.86;90.46;97495.72;5050597;28;20056;-64
2022/12/31 01:15:52;;;;;;;23.58;13.23;;;;;;;0.94;91.90;97498.44;5050644;28;20509;-63
2022/12/31 01:18:19;;;;;;;27.35;14.27;;;;;;;1.04;93.26;97489.13;5050539;28;20045;-60
2022/12/31 01:20:46;;;;;;;20.35;12.80;;;;;;;1.19;93.33;97490.19;5050490;28;20132;-63
2022/12/31 01:23:13;;;;;;;18.98;11.60;;;;;;;1.29;92.80;97489.47;5050529;28;20402;-62
2022/12/31 01:25:42;;;;;;;18.88;11.52;;;;;;;1.35;92.27;97484.41;5050405;28;20045;-65
2022/12/31 01:28:12;;;;;;;22.20;12.60;;;;;;;1.37;92.14;97476.69;5049462;28;20049;-67
2022/12/31 01:30:41;;;;;;;25.00;13.75;;;;;;;1.42;93.32;97480.22;5050300;28;20045;-61
2022/12/31 01:33:08;;;;;;;22.73;14.13;;;;;;;1.60;93.65;97478.72;5050414;28;20049;-63
2022/12/31 01:35:39;;;;;;;23.25;14.95;;;;;;;1.73;93.47;97480.59;5050253;28;20410;-62
2022/12/31 01:38:06;;;;;;;26.65;14.65;;;;;;;1.82;93.51;97479.84;5050298;28;20481;-62
2022/12/31 01:40:38;;;;;;;20.00;13.48;;;;;;;1.93;93.09;97479.97;5049699;28;20045;-64
2022/12/31 01:43:15;;;;;;;24.05;13.40;;;;;;;1.97;92.87;97479.16;5050229;28;20459;-64
2022/12/31 01:45:44;;;;;;;26.30;13.38;;;;;;;2.05;93.27;97483.53;5050196;28;20075;-62
2022/12/31 01:48:14;;;;;;;26.08;14.73;;;;;;;2.10;94.04;97476.69;5050004;28;20053;-65
2022/12/31 01:50:43;;;;;;;22.20;12.23;;;;;;;2.17;94.72;97481.09;5050075;28;20089;-63
2022/12/31 01:53:11;;;;;;;24.20;14.82;;;;;;;2.28;94.95;97486.34;5050049;28;20056;-62
2022/12/31 01:55:45;;;;;;;24.95;15.77;;;;;;;2.39;94.70;97484.78;5049938;28;20732;-62
2022/12/31 01:58:18;;;;;;;26.77;14.38;;;;;;;2.47;94.79;97476.22;5049941;28;20057;-63
2022/12/31 02:00:47;;;;;;;25.70;13.18;;;;;;;2.56;94.83;97480.59;5049845;28;20487;-64
2022/12/31 02:03:15;;;;;;;22.20;13.15;;;;;;;2.63;94.90;97469.47;5049870;28;20049;-62
2022/12/31 02:05:47;;;;;;;22.08;13.18;;;;;;;2.72;94.63;97481.59;5049837;28;20057;-66
2022/12/31 02:08:14;;;;;;;24.83;14.52;;;;;;;2.77;94.16;97478.19;5049948;28;20057;-65
2022/12/31 02:10:42;;;;;;;19.65;13.55;;;;;;;2.84;94.83;97484.28;5049857;28;20101;-63
2022/12/31 02:13:09;;;;;;;17.25;12.07;;;;;;;2.91;94.46;97482.59;5049767;28;20140;-65
2022/12/31 02:15:48;;;;;;;27.05;16.65;;;;;;;2.88;94.56;97480.88;5049758;28;20128;-63
2022/12/31 02:18:22;;;;;;;29.98;16.55;;;;;;;2.92;95.14;97475.72;5049632;28;20052;-63
2022/12/31 02:21:14;;;;;;;27.50;18.48;;;;;;;2.93;95.10;97474.88;5049676;28;20113;-67
2022/12/31 02:24:03;;;;;;;29.83;16.95;;;;;;;2.96;94.76;97472.31;5049787;28;20498;-65
2022/12/31 02:26:56;;;;;;;26.13;14.82;;;;;;;2.93;94.91;97472.28;5049618;28;20098;-62
2022/12/31 02:29:50;;;;;;;23.90;14.02;;;;;;;2.92;95.60;97479.16;5049584;28;20041;-63
2022/12/31 02:32:24;;;;;;;20.33;13.00;;;;;;;2.99;95.33;97486.13;5049454;28;20406;-64
2022/12/31 02:34:56;;;;;;;19.80;12.88;;;;;;;3.06;95.36;97491.31;5049521;28;20101;-64
2022/12/31 02:37:25;;;;;;;21.75;13.82;;;;;;;3.12;95.41;97488.78;5049386;28;20131;-65
2022/12/31 02:39:53;;;;;;;89.47;70.32;;;;;;;3.20;95.47;97487.13;5050132;28;20049;-63
2022/12/31 02:42:20;;;;;;;35.85;26.52;;;;;;;3.22;95.25;97492.31;5052783;28;20041;-63
2022/12/31 02:44:48;;;;;;;28.98;17.90;;;;;;;3.21;94.80;97486.28;5052941;28;20049;-65
2022/12/31 02:47:26;;;;;;;26.08;17.02;;;;;;;3.29;93.85;97496.69;5052833;28;20053;-66
2022/12/31 02:50:09;;;;;;;19.85;13.07;;;;;;;3.27;93.19;97507.00;5052765;28;20452;-66
2022/12/31 02:52:49;;;;;;;18.33;12.43;;;;;;;3.27;91.70;97503.53;5052642;28;20502;-67
2022/12/31 02:55:24;;;;;;;20.60;13.73;;;;;;;3.18;91.32;97490.53;5052809;28;20045;-67
2022/12/31 02:58:03;;;;;;;19.30;12.55;;;;;;;3.20;91.45;97492.31;5052650;28;20053;-62
2022/12/31 03:03:21;;;;;;;23.92;13.45;;;;;;;3.21;92.83;97488.84;5052693;28;20159;-63
2022/12/31 03:05:50;;;;;;;22.77;13.88;;;;;;;3.28;93.05;97484.56;5052668;28;20045;-63
2022/12/31 03:08:21;;;;;;;23.60;14.48;;;;;;;3.36;93.25;97494.97;5052551;28;20542;-66
2022/12/31 03:10:49;;;;;;;22.65;14.88;;;;;;;3.40;92.95;97495.00;5052460;28;20074;-62
2022/12/31 03:13:16;;;;;;;20.65;13.90;;;;;;;3.48;92.87;97505.41;5052395;28;20052;-65
2022/12/31 03:15:44;;;;;;;21.70;14.07;;;;;;;3.50;92.45;97502.84;5052263;28;20052;-64
2022/12/31 03:18:14;;;;;;;19.55;14.23;;;;;;;3.51;91.99;97505.44;5052541;28;20056;-64
2022/12/31 03:23:33;;;;;;;20.15;12.75;;;;;;;3.51;91.46;97514.91;5052357;28;20197;-64
2022/12/31 03:26:00;;;;;;;18.63;12.95;;;;;;;3.54;91.30;97508.03;5052233;28;20049;-61
2022/12/31 03:28:29;;;;;;;24.50;14.02;;;;;;;3.57;91.31;97514.94;5052159;28;20394;-65
2022/12/31 03:30:58;;;;;;;20.02;13.27;;;;;;;3.61;91.28;97513.25;5052136;28;20608;-64
2022/12/31 03:33:26;;;;;;;21.48;13.52;;;;;;;3.64;91.11;97513.25;5052107;28;20455;-65
2022/12/31 03:35:54;;;;;;;22.98;14.20;;;;;;;3.53;91.00;97513.19;5052082;28;20049;-63
2022/12/31 03:38:21;;;;;;;21.05;13.38;;;;;;;3.50;91.74;97505.41;5052122;28;20125;-62
2022/12/31 03:40:50;;;;;;;22.25;12.57;;;;;;;3.57;91.56;97517.53;5051757;28;20059;-62
2022/12/31 03:43:18;;;;;;;20.58;14.20;;;;;;;3.64;91.39;97508.06;5051908;28;20113;-62
2022/12/31 03:45:45;;;;;;;18.70;11.73;;;;;;;3.56;91.97;97514.94;5051887;28;20053;-62
2022/12/31 03:48:13;;;;;;;14.68;10.20;;;;;;;3.49;92.29;97514.03;5052012;28;20084;-63
2022/12/31 03:50:40;;;;;;;22.02;11.60;;;;;;;3.45;92.79;97512.28;5051336;28;20041;-63
2022/12/31 03:53:09;;;;;;;16.98;11.07;;;;;;;3.51;93.81;97509.72;5051871;28;20049;-64
2022/12/31 03:55:36;;;;;;;18.88;12.32;;;;;;;3.60;94.24;97509.78;5051893;28;20049;-65
2022/12/31 03:58:03;;;;;;;17.77;12.05;;;;;;;3.69;93.80;97514.16;5051745;28;20076;-65
2022/12/31 04:00:31;;;;;;;19.13;12.57;;;;;;;3.73;94.06;97512.44;5051740;28;20095;-64
2022/12/31 04:02:58;;;;;;;17.98;11.55;;;;;;;3.83;94.11;97516.81;5051592;28;20555;-66
2022/12/31 04:05:25;;;;;;;17.88;11.35;;;;;;;3.91;93.76;97514.22;5051774;28;20071;-65
2022/12/31 04:07:52;;;;;;;18.50;11.45;;;;;;;3.94;93.72;97511.66;5051572;28;20045;-65
2022/12/31 04:10:20;;;;;;;17.65;12.13;;;;;;;3.97;93.48;97519.44;5051702;28;20048;-64
2022/12/31 04:12:48;;;;;;;19.70;11.43;;;;;;;3.96;92.33;97525.50;5051479;28;20079;-65
2022/12/31 04:15:19;;;;;;;17.08;11.60;;;;;;;3.97;91.62;97522.03;5051404;28;20090;-65
2022/12/31 04:17:46;;;;;;;14.38;10.15;;;;;;;3.97;90.85;97519.44;5051470;28;20052;-67
2022/12/31 04:20:14;;;;;;;18.15;10.70;;;;;;;3.95;90.74;97526.34;5051535;28;20113;-67
2022/12/31 04:22:42;;;;;;;22.88;15.40;;;;;;;3.87;90.39;97523.72;5051467;28;20049;-64
2022/12/31 04:25:10;;;;;;;24.83;13.93;;;;;;;3.80;90.69;97529.75;5051345;28;20045;-63
2022/12/31 04:27:42;;;;;;;21.25;15.02;;;;;;;3.81;90.95;97521.09;5051272;28;20483;-63
2022/12/31 04:30:10;;;;;;;18.95;13.77;;;;;;;3.86;90.80;97523.72;5051370;28;20049;-65
2022/12/31 04:32:37;;;;;;;18.05;12.07;;;;;;;3.84;90.95;97528.88;5051236;28;20105;-65
2022/12/31 04:35:05;;;;;;;18.17;12.05;;;;;;;3.86;91.22;97532.38;5051200;28;20479;-62
2022/12/31 04:37:32;;;;;;;16.83;12.23;;;;;;;3.91;91.02;97529.75;5051173;28;20124;-63
2022/12/31 04:39:59;;;;;;;18.42;12.43;;;;;;;3.96;90.86;97532.38;5051096;28;20049;-64
2022/12/31 04:42:27;;;;;;;17.60;10.27;;;;;;;4.02;90.81;97535.00;5050849;28;20491;-65
2022/12/31 04:44:55;;;;;;;15.27;11.05;;;;;;;4.01;90.68;97536.72;5051090;28;20093;-67
2022/12/31 04:47:22;;;;;;;14.80;10.52;;;;;;;4.07;90.93;97543.66;5051022;28;20053;-61
2022/12/31 04:49:49;;;;;;;15.57;10.60;;;;;;;4.08;90.82;97539.34;5050971;28;20070;-65
2022/12/31 04:52:16;;;;;;;19.27;12.02;;;;;;;4.07;90.76;97537.59;5050792;28;20168;-64
2022/12/31 04:54:43;;;;;;;21.67;12.38;;;;;;;4.02;90.63;97538.47;5051074;27;20053;-66
2022/12/31 04:57:11;;;;;;;16.85;11.73;;;;;;;3.99;90.96;97540.16;5050877;28;20550;-65
2022/12/31 04:59:38;;;;;;;13.27;9.38;;;;;;;4.01;91.21;97541.03;5050800;28;20074;-65
2022/12/31 05:02:06;;;;;;;14.30;9.32;;;;;;;4.00;91.01;97541.91;5050359;28;20084;-65
2022/12/31 05:04:33;;;;;;;16.13;10.30;;;;;;;3.97;90.86;97542.75;5050424;28;20053;-64
2022/12/31 05:07:00;;;;;;;15.25;10.38;;;;;;;3.91;90.68;97542.72;5050757;28;20495;-63
2022/12/31 05:09:28;;;;;;;15.40;10.35;;;;;;;3.82;90.61;97548.72;5050680;28;20077;-66
2022/12/31 05:11:56;;;;;;;14.93;11.00;;;;;;;3.85;90.13;97553.91;5050587;28;20127;-66
2022/12/31 05:14:23;;;;;;;14.30;9.50;;;;;;;3.81;90.12;97552.16;5050586;28;20148;-63
2022/12/31 05:16:50;;;;;;;15.27;10.65;;;;;;;3.74;90.13;97553.88;5050569;28;20056;-63
2022/12/31 05:19:19;;;;;;;14.90;10.10;;;;;;;3.71;90.08;97552.97;5050627;28;20049;-64
2022/12/31 05:22:27;;;;;;;14.90;10.68;;;;;;;3.60;90.57;97561.53;5050651;28;20045;-65
2022/12/31 05:24:34;;;;;;;16.65;11.77;;;;;;;3.63;90.91;97565.88;5050474;28;20045;-63
2022/12/31 05:27:01;;;;;;;17.52;10.55;;;;;;;3.60;90.46;97566.72;5050621;28;20100;-61
2022/12/31 05:29:28;;;;;;;14.77;10.05;;;;;;;3.61;90.07;97565.84;5050397;28;20045;-60
2022/12/31 05:31:55;;;;;;;13.40;9.35;;;;;;;3.63;89.78;97573.63;5050284;28;20045;-62
2022/12/31 05:34:24;;;;;;;16.08;9.80;;;;;;;3.66;89.01;97582.28;5050417;28;20081;-64
2022/12/31 05:36:51;;;;;;;15.30;11.52;;;;;;;3.58;88.93;97578.78;5050244;28;20134;-61
2022/12/31 05:39:18;;;;;;;18.50;11.10;;;;;;;3.55;88.58;97581.34;5050401;28;20124;-61
2022/12/31 05:41:46;;;;;;;13.15;9.50;;;;;;;3.47;88.75;97570.97;5049858;28;20053;-65
2022/12/31 05:44:13;;;;;;;12.68;8.88;;;;;;;3.47;88.58;97576.13;5050167;28;20060;-66
2022/12/31 05:46:41;;;;;;;12.00;8.48;;;;;;;3.46;88.16;97586.47;5050167;28;20063;-66
2022/12/31 05:49:08;;;;;;;11.48;8.40;;;;;;;3.35;87.65;97581.19;5050020;28;20136;-64
2022/12/31 05:51:36;;;;;;;11.48;8.18;;;;;;;3.24;87.77;97582.00;5050091;28;20102;-63
2022/12/31 05:54:04;;;;;;;12.85;8.13;;;;;;;3.23;88.16;97588.03;5050061;28;20141;-64
2022/12/31 05:56:31;;;;;;;11.93;7.72;;;;;;;3.25;88.14;97594.06;5049953;28;20052;-63
2022/12/31 05:58:59;;;;;;;10.18;7.68;;;;;;;3.15;87.90;97597.41;5050044;28;20074;-63
2022/12/31 06:01:25;;;;;;;12.32;7.05;;;;;;;3.02;87.79;97601.63;5050018;28;20053;-63
2022/12/31 06:03:52;;;;;;;14.93;8.45;;;;;;;3.02;88.01;97607.69;5049854;28;20132;-63
2022/12/31 06:06:19;;;;;;;14.80;10.57;;;;;;;3.01;87.69;97610.25;5049982;28;20123;-64
2022/12/31 06:08:52;;;;;;;9.95;7.43;;;;;;;2.97;87.67;97611.03;5049907;28;20045;-66
2022/12/31 06:11:19;;;;;;;18.70;8.43;;;;;;;2.94;87.99;97614.47;5049863;28;20045;-65
2022/12/31 06:13:46;;;;;;;11.13;7.30;;;;;;;2.94;87.51;97614.47;5050404;28;20097;-62
2022/12/31 06:16:14;;;;;;;8.35;6.03;;;;;;;2.94;86.77;97613.59;5053293;28;20406;-65
2022/12/31 06:18:41;;;;;;;9.48;6.88;;;;;;;2.93;86.34;97615.34;5053363;28;20581;-63
2022/12/31 06:21:09;;;;;;;153.07;106.00;;;;;;;2.81;86.54;97618.66;5053294;28;20041;-64
2022/12/31 06:23:36;;;;;;;47.53;34.72;;;;;;;2.80;86.82;97610.91;5053246;28;20456;-64
2022/12/31 06:26:05;;;;;;;16.13;8.50;;;;;;;2.75;86.83;97616.00;5053248;28;20102;-63
2022/12/31 06:28:33;;;;;;;11.43;8.07;;;;;;;2.98;89.27;97623.16;5053263;28;20045;-62
2022/12/31 06:31:01;;;;;;;13.95;7.75;;;;;;;4.19;89.33;97617.09;5053117;28;20491;-65
2022/12/31 06:33:29;;;;;;;5.03;4.28;;;;;;;5.69;80.50;97626.03;5052902;28;20049;-65
2022/12/31 06:35:57;;;;;;;6.88;4.72;;;;;;;6.52;73.57;97620.63;5053039;28;20524;-65
2022/12/31 06:38:24;;;;;;;8.50;5.43;;;;;;;7.11;70.49;97628.13;5053056;28;20049;-65
2022/12/31 06:40:53;;;;;;;7.45;5.82;;;;;;;7.90;69.02;97637.03;5052920;28;20049;-64
2022/12/31 06:43:23;;;;;;;5.47;4.82;;;;;;;9.38;64.67;97641.28;5052919;28;20375;-62
2022/12/31 06:45:50;;;;;;;7.73;3.87;;;;;;;10.97;59.92;97634.03;5052989;28;20071;-64
2022/12/31 06:48:17;;;;;;;3.88;3.45;;;;;;;12.40;55.87;97641.03;5052935;28;20045;-66
2022/12/31 06:50:45;;;;;;;4.15;3.00;;;;;;;13.55;50.74;97644.66;5052779;28;20057;-63
2022/12/31 06:53:12;;;;;;;3.78;3.20;;;;;;;14.68;47.06;97639.03;5052829;28;20053;-64
2022/12/31 06:55:42;;;;;;;3.75;2.92;;;;;;;15.60;44.71;97633.78;5052787;28;20041;-64
2022/12/31 06:58:13;;;;;;;3.00;2.70;;;;;;;16.59;42.65;97633.13;5052865;28;20056;-62
2022/12/31 07:00:50;;;;;;;3.30;3.00;;;;;;;17.35;40.77;97643.78;5052571;28;20049;-64
2022/12/31 07:03:31;;;;;;;5.18;2.85;;;;;;;18.08;39.14;97647.28;5052568;28;20049;-66
2022/12/31 07:06:07;;;;;;;3.83;3.08;;;;;;;18.71;38.31;97639.66;5052642;28;20048;-64
2022/12/31 07:08:44;;;;;;;3.80;3.38;;;;;;;19.35;36.96;97644.19;5052587;28;20049;-66
2022/12/31 07:11:19;;;;;;;3.95;2.97;;;;;;;19.77;36.33;97655.06;5052535;28;20041;-62
2022/12/31 07:13:58;;;;;;;4.38;3.25;;;;;;;20.47;35.30;97653.69;5052461;28;20049;-65
2022/12/31 07:16:49;;;;;;;3.47;2.72;;;;;;;21.16;34.15;97655.66;5052638;28;20077;-64
2022/12/31 07:19:28;;;;;;;5.22;3.28;;;;;;;21.39;33.84;97652.47;5052360;28;20074;-64
2022/12/31 07:21:58;;;;;;;3.90;2.88;;;;;;;21.88;32.61;97656.38;5052443;28;20080;-67
2022/12/31 07:24:27;;;;;;;4.05;3.28;;;;;;;22.43;32.11;97656.25;5052395;28;20049;-65
2022/12/31 07:27:07;;;;;;;3.13;2.83;;;;;;;22.77;32.34;97658.44;5051461;28;20064;-61
2022/12/31 07:29:49;;;;;;;3.40;3.05;;;;;;;23.04;31.07;97657.44;5052264;28;20125;-63
2022/12/31 07:32:33;;;;;;;3.47;2.92;;;;;;;22.96;31.04;97659.78;5051987;28;20056;-67
2022/12/31 07:35:09;;;;;;;3.75;2.83;;;;;;;23.19;29.81;97662.63;5052100;28;20045;-60
2022/12/31 07:37:46;;;;;;;3.30;3.00;;;;;;;23.53;28.98;97662.84;5051977;28;20053;-66
2022/12/31 07:40:23;;;;;;;3.47;3.15;;;;;;;24.17;28.72;97668.84;5052020;28;20045;-66
2022/12/31 07:43:04;;;;;;;3.70;2.63;;;;;;;24.16;28.80;97672.50;5052157;28;20071;-66
2022/12/31 07:45:40;;;;;;;3.55;3.00;;;;;;;24.38;28.80;97670.00;5051949;28;20045;-66
2022/12/31 07:48:23;;;;;;;3.80;2.80;;;;;;;24.50;28.52;97679.72;5051935;28;20045;-65
2022/12/31 07:50:53;;;;;;;3.50;2.90;;;;;;;24.48;28.59;97676.34;5051983;28;20053;-60
2022/12/31 07:53:21;;;;;;;4.83;4.33;;;;;;;24.65;28.36;97680.38;5051746;28;20137;-65
2022/12/31 07:55:53;;;;;;;4.68;4.13;;;;;;;24.95;27.86;97680.81;5051799;28;20290;-65
2022/12/31 07:58:30;;;;;;;6.15;4.78;;;;;;;25.35;27.45;97682.94;5051783;28;20052;-66
2022/12/31 08:01:01;;;;;;;10.60;4.75;;;;;;;25.61;27.05;97684.50;5051806;28;20040;-67
2022/12/31 08:03:47;;;;;;;6.10;5.28;;;;;;;25.97;25.35;97692.28;5051808;28;20124;-66
2022/12/31 08:06:23;;;;;;;5.60;4.80;;;;;;;26.29;25.58;97694.13;5051638;28;20045;-65
2022/12/31 08:08:59;;;;;;;7.63;5.00;;;;;;;26.77;26.01;97693.69;5051571;28;20074;-66
2022/12/31 08:11:36;;;;;;;5.78;4.68;;;;;;;26.81;25.67;97690.63;5051550;28;20049;-66
2022/12/31 08:14:04;;;;;;;5.53;4.60;;;;;;;27.09;25.34;97687.38;5051417;28;20057;-66
2022/12/31 08:16:32;;;;;;;6.85;4.20;;;;;;;27.08;24.73;97681.16;5051525;28;20045;-66
2022/12/31 08:19:02;;;;;;;5.47;4.88;;;;;;;26.88;24.60;97682.91;5051537;28;20041;-67
2022/12/31 08:21:47;;;;;;;4.82;4.15;;;;;;;27.07;24.21;97675.94;5051484;28;20087;-64
2022/12/31 08:24:25;;;;;;;5.85;4.60;;;;;;;26.92;24.80;97678.94;5051195;28;20076;-64
2022/12/31 08:27:01;;;;;;;7.80;4.57;;;;;;;26.81;24.91;97682.56;5051276;28;20048;-63
2022/12/31 08:29:43;;;;;;;4.70;4.28;;;;;;;26.62;24.75;97677.97;5051160;28;20049;-64
2022/12/31 08:32:17;;;;;;;6.90;4.78;;;;;;;26.62;24.89;97672.59;5051175;28;20060;-63
2022/12/31 08:35:00;;;;;;;7.03;4.22;;;;;;;26.72;24.67;97675.31;5051102;28;20048;-64
2022/12/31 08:37:37;;;;;;;5.55;4.75;;;;;;;26.27;25.42;97687.16;5051156;28;20401;-63
2022/12/31 08:40:20;;;;;;;5.13;4.60;;;;;;;25.62;25.67;97667.47;5051265;28;20053;-61
2022/12/31 08:43:13;;;;;;;6.07;4.40;;;;;;;25.26;25.91;97664.97;5011505;28;20049;-64
2022/12/31 08:46:01;;;;;;;8.80;5.13;;;;;;;24.83;26.85;97655.84;5011412;28;20081;-65
2022/12/31 08:48:40;;;;;;;6.53;4.90;;;;;;;23.78;29.18;97658.34;5010867;28;20056;-63
2022/12/31 08:51:18;;;;;;;5.28;4.38;;;;;;;23.36;29.46;97661.41;5011573;28;20575;-64
2022/12/31 08:53:51;;;;;;;6.50;4.30;;;;;;;22.64;30.47;97669.13;5011320;28;20129;-62
2022/12/31 08:56:27;;;;;;;4.82;4.10;;;;;;;21.77;31.29;97664.25;5011248;28;20060;-63
2022/12/31 08:59:04;;;;;;;6.05;4.30;;;;;;;21.11;32.82;97662.22;5011131;28;20045;-66
2022/12/31 09:01:51;;;;;;;5.38;4.60;;;;;;;20.54;32.55;97648.81;5011131;28;20056;-61
2022/12/31 09:04:29;;;;;;;5.30;4.22;;;;;;;20.78;32.11;97651.78;5011176;28;20050;-65
2022/12/31 09:07:04;;;;;;;4.53;3.88;;;;;;;20.96;31.58;97655.09;5011294;28;20052;-63
2022/12/31 09:09:44;;;;;;;7.15;5.22;;;;;;;20.66;32.02;97653.41;5011204;28;20502;-61
2022/12/31 09:12:19;;;;;;;6.73;4.73;;;;;;;20.09;33.07;97652.38;5011141;28;20042;-61
2022/12/31 09:14:50;;;;;;;4.88;4.38;;;;;;;19.44;33.61;97659.56;5010905;28;20584;-64
2022/12/31 09:17:37;;;;;;;5.10;4.38;;;;;;;18.49;36.41;97662.88;5010976;28;20049;-62
2022/12/31 09:20:06;;;;;;;11.57;4.50;;;;;;;17.73;37.98;97659.56;5011108;28;20134;-61
2022/12/31 09:22:36;;;;;;;9.07;5.20;;;;;;;17.08;38.82;97655.59;5010928;28;20046;-61
2022/12/31 09:25:04;;;;;;;6.78;4.22;;;;;;;16.93;39.81;97655.38;5010868;28;20558;-65
2022/12/31 09:27:42;;;;;;;4.88;4.30;;;;;;;16.87;39.67;97654.78;5010874;28;20046;-63
2022/12/31 09:30:15;;;;;;;6.85;4.25;;;;;;;16.65;39.51;97651.31;5010855;28;20061;-62
2022/12/31 09:32:49;;;;;;;6.25;4.85;;;;;;;16.29;41.31;97652.06;5010787;28;20050;-61
2022/12/31 09:35:29;;;;;;;6.88;5.13;;;;;;;16.03;42.41;97646.09;5010701;28;20516;-61
2022/12/31 09:38:05;;;;;;;5.75;5.03;;;;;;;15.63;41.90;97651.25;5010719;28;20103;-65
2022/12/31 09:41:04;;;;;;;5.03;4.50;;;;;;;15.62;41.46;97646.91;5016450;28;20045;-60
2022/12/31 09:44:04;;;;;;;6.55;4.82;;;;;;;15.68;42.19;97643.97;5037430;28;20493;-64
2022/12/31 09:47:04;;;;;;;7.43;4.25;;;;;;;15.39;41.75;97638.97;5050016;28;20041;-65
2022/12/31 09:50:07;;;;;;;4.72;3.63;;;;;;;15.36;41.72;97640.88;5049704;27;20743;-63
2022/12/31 09:52:52;;;;;;;6.70;4.30;;;;;;;15.45;41.10;97629.09;5050008;28;20045;-61
2022/12/31 09:55:32;;;;;;;6.85;5.35;;;;;;;15.47;42.30;97625.47;5050060;28;20060;-61
2022/12/31 09:58:14;;;;;;;8.13;5.32;;;;;;;15.41;43.38;97618.69;5050020;28;20057;-64
2022/12/31 10:00:48;;;;;;;7.35;6.05;;;;;;;15.36;43.44;97620.66;5050103;28;20053;-63
2022/12/31 10:03:31;;;;;;;9.27;6.68;;;;;;;15.00;44.49;97626.47;5049839;28;20472;-63
2022/12/31 10:06:24;;;;;;;7.95;6.07;;;;;;;14.99;44.23;97615.06;5049867;28;20064;-62
2022/12/31 10:09:21;;;;;;;6.82;5.72;;;;;;;15.03;43.56;97607.91;5050426;28;20132;-62
2022/12/31 10:12:05;;;;;;;7.50;5.65;;;;;;;15.05;43.91;97616.59;5049867;28;20045;-63
2022/12/31 10:14:49;;;;;;;7.80;5.90;;;;;;;15.18;43.28;97606.44;5049824;28;20055;-62
2022/12/31 10:17:30;;;;;;;6.75;5.70;;;;;;;15.15;43.17;97602.13;5049854;28;20049;-63
2022/12/31 10:20:17;;;;;;;8.45;5.53;;;;;;;15.21;42.15;97608.09;5049724;28;20690;-65
2022/12/31 10:23:13;;;;;;;6.78;5.70;;;;;;;15.19;42.72;97602.88;5049676;28;20049;-63
2022/12/31 10:26:04;;;;;;;9.30;5.55;;;;;;;15.22;41.84;97604.53;5048326;28;20057;-62
2022/12/31 10:28:46;;;;;;;8.02;5.60;;;;;;;15.25;42.09;97599.13;5043025;28;20053;-64
2022/12/31 10:31:16;;;;;;;7.07;6.10;;;;;;;15.17;42.73;97599.44;5049763;28;20478;-66
2022/12/31 10:33:50;;;;;;;7.53;5.28;;;;;;;15.19;42.16;97600.25;5049607;28;20108;-64
2022/12/31 10:36:20;;;;;;;7.82;4.70;;;;;;;15.20;41.07;97599.31;5049524;28;20098;-64
2022/12/31 10:39:03;;;;;;;8.10;5.65;;;;;;;15.28;41.66;97596.38;5049530;28;20196;-61
2022/12/31 10:42:05;;;;;;;7.72;5.93;;;;;;;15.17;41.35;97591.53;5049208;28;20053;-64
2022/12/31 10:45:09;;;;;;;7.47;5.95;;;;;;;15.12;42.63;97593.50;5049502;28;20052;-65
2022/12/31 10:48:07;;;;;;;10.60;6.80;;;;;;;15.00;42.62;97592.22;5049366;28;20053;-65
2022/12/31 10:51:20;;;;;;;8.82;6.07;;;;;;;14.88;43.84;97591.78;5049456;28;20041;-63
2022/12/31 10:54:35;;;;;;;9.50;6.57;;;;;;;14.82;43.25;97589.38;5049325;28;20483;-62
2022/12/31 10:57:37;;;;;;;9.10;6.50;;;;;;;14.87;43.66;97589.22;5049162;28;20490;-65
2022/12/31 11:00:12;;;;;;;7.85;5.80;;;;;;;14.89;42.62;97588.22;5049159;28;20094;-61
2022/12/31 11:03:22;;;;;;;9.20;6.50;;;;;;;14.88;42.50;97581.25;5052555;28;20079;-62
2022/12/31 11:06:21;;;;;;;8.23;6.32;;;;;;;14.78;42.34;97578.09;5052726;28;20041;-63
2022/12/31 11:09:29;;;;;;;8.20;5.72;;;;;;;14.86;42.95;97572.53;5022241;28;20437;-64
2022/12/31 11:12:06;;;;;;;9.30;6.18;;;;;;;14.89;42.87;97575.06;5052493;28;20092;-65
2022/12/31 11:15:12;;;;;;;7.45;6.13;;;;;;;14.93;42.62;97572.31;5052451;28;20066;-66
2022/12/31 11:17:55;;;;;;;6.10;5.45;;;;;;;14.93;41.82;97575.78;5052372;28;20482;-65
2022/12/31 11:20:45;;;;;;;6.72;5.22;;;;;;;14.87;41.86;97571.59;5052369;28;20045;-65
2022/12/31 11:23:28;;;;;;;5.65;4.07;;;;;;;14.79;41.43;97576.31;5052409;28;20049;-65
2022/12/31 11:26:13;;;;;;;5.78;4.43;;;;;;;14.78;40.99;97567.56;5052257;28;20045;-63
2022/12/31 11:29:04;;;;;;;6.60;4.90;;;;;;;14.83;41.22;97567.38;5052148;28;20049;-62
2022/12/31 11:31:48;;;;;;;5.85;4.57;;;;;;;14.75;40.80;97564.16;5052169;28;20086;-65
2022/12/31 11:34:29;;;;;;;5.50;4.50;;;;;;;14.83;41.39;97566.50;5052103;28;20052;-65
2022/12/31 11:37:15;;;;;;;7.43;4.40;;;;;;;14.86;40.75;97569.03;5052209;28;20041;-63
2022/12/31 11:39:50;;;;;;;6.10;4.15;;;;;;;14.79;40.28;97560.53;5051953;28;20060;-61
2022/12/31 11:42:21;;;;;;;6.22;4.70;;;;;;;14.75;41.08;97565.00;5051845;28;20049;-64
2022/12/31 11:44:56;;;;;;;7.55;5.00;;;;;;;14.77;41.71;97562.31;5052077;28;20045;-61
2022/12/31 11:47:49;;;;;;;8.60;4.90;;;;;;;14.78;40.54;97559.66;5052033;28;20109;-62
2022/12/31 11:50:39;;;;;;;6.72;4.30;;;;;;;14.65;40.52;97566.28;5051865;28;20045;-62
2022/12/31 11:53:57;;;;;;;5.18;4.00;;;;;;;14.55;40.04;97565.78;5051919;28;20049;-64
2022/12/31 11:56:31;;;;;;;6.57;3.97;;;;;;;14.56;39.69;97564.00;5045606;28;20068;-63
2022/12/31 11:59:00;;;;;;;6.10;4.60;;;;;;;14.46;40.35;97564.34;5051695;28;20087;-62
2022/12/31 12:01:32;;;;;;;10.65;5.10;;;;;;;14.45;40.58;97562.63;5051756;28;20041;-63
2022/12/31 12:04:00;;;;;;;9.73;6.45;;;;;;;14.31;42.45;97563.16;5051668;28;20056;-63
2022/12/31 12:06:32;;;;;;;7.57;5.28;;;;;;;14.33;42.17;97556.03;5051667;28;20041;-65
2022/12/31 12:09:04;;;;;;;9.57;5.43;;;;;;;14.43;42.14;97566.25;5051539;28;20593;-64
2022/12/31 12:11:37;;;;;;;6.25;5.10;;;;;;;14.36;41.55;97563.81;5051230;28;20132;-62